Time;durP1;ratioP1;P1;durP2;ratioP2;P2;SDS_P1;SDS_P2;PMS_P1;PMS_P2;Temp;Humidity;BMP_temperature;BMP_pressure;BME280_temperature;BME280_humidity;BME280_pressure;Samples;Min_cycle;Max_cycle;Signal;HPM_P1;HPM_P2
2022/12/07 00:01:35;;;;;;;24.55;15.95;;;;;;;8.41;62.53;101400.75;5028691;28;20425;-77
2022/12/07 00:04:06;;;;;;;26.02;17.10;;;;;;;8.39;61.99;101397.41;5032160;28;20759;-77
2022/12/07 00:06:37;;;;;;;23.45;15.32;;;;;;;8.35;62.89;101396.00;5031971;28;20370;-77
2022/12/07 00:09:04;;;;;;;25.05;16.30;;;;;;;8.33;63.14;101394.47;5033084;28;20805;-77
2022/12/07 00:11:29;;;;;;;21.95;15.63;;;;;;;8.44;62.57;101388.25;5034859;28;20379;-79
2022/12/07 00:13:58;;;;;;;26.23;16.00;;;;;;;8.43;62.26;101387.44;5035226;28;20389;-79
2022/12/07 00:16:26;;;;;;;22.30;15.82;;;;;;;8.51;61.80;101390.19;5034940;28;20938;-78
2022/12/07 00:18:52;;;;;;;23.63;15.25;;;;;;;8.54;61.93;101389.09;5031111;28;20395;-77
2022/12/07 00:21:23;;;;;;;23.33;15.38;;;;;;;8.58;62.30;101395.75;5032647;28;20866;-77
2022/12/07 00:23:50;;;;;;;23.52;15.43;;;;;;;8.67;61.44;101391.44;5034469;28;20390;-78
2022/12/07 00:26:17;;;;;;;25.40;16.85;;;;;;;8.66;61.91;101401.19;5035825;28;20374;-78
2022/12/07 00:28:54;;;;;;;22.52;16.10;;;;;;;8.58;61.67;101390.47;5035627;28;20383;-78
2022/12/07 00:31:23;;;;;;;31.23;21.35;;;;;;;8.50;61.86;101395.59;5034904;28;20413;-77
2022/12/07 00:33:48;;;;;;;31.67;23.80;;;;;;;8.41;62.12;101392.81;5035018;28;20393;-77
2022/12/07 00:36:17;;;;;;;25.35;18.65;;;;;;;8.42;62.57;101396.31;5034295;28;20394;-77
2022/12/07 00:38:43;;;;;;;27.77;19.63;;;;;;;8.50;62.06;101395.59;5033598;28;20401;-75
2022/12/07 00:41:17;;;;;;;22.95;15.50;;;;;;;8.59;62.39;101390.34;5032696;28;20382;-76
2022/12/07 00:43:43;;;;;;;23.75;16.60;;;;;;;8.60;61.97;101393.81;5032631;28;20386;-77
2022/12/07 00:46:10;;;;;;;25.58;16.80;;;;;;;8.62;61.56;101405.06;5028385;28;20479;-78
2022/12/07 00:48:37;;;;;;;25.65;16.20;;;;;;;8.44;62.34;101399.66;5031558;28;21397;-77
2022/12/07 00:51:04;;;;;;;24.17;15.43;;;;;;;8.23;62.47;101387.38;5032525;28;20409;-77
2022/12/07 00:53:30;;;;;;;21.02;15.38;;;;;;;8.26;62.97;101383.63;5029128;28;20747;-77
2022/12/07 00:55:56;;;;;;;24.27;16.17;;;;;;;8.29;62.57;101369.31;5032399;28;20382;-77
2022/12/07 00:58:22;;;;;;;22.73;14.73;;;;;;;8.34;62.57;101367.94;5027339;28;20485;-76
2022/12/07 01:00:47;;;;;;;25.15;16.55;;;;;;;8.43;62.29;101363.66;5031297;28;20473;-77
2022/12/07 01:03:14;;;;;;;25.75;16.33;;;;;;;8.49;62.20;101365.72;5032029;28;20796;-77
2022/12/07 01:05:48;;;;;;;24.10;15.75;;;;;;;8.54;62.33;101355.56;5031369;28;20397;-78
2022/12/07 01:08:13;;;;;;;26.83;16.38;;;;;;;8.52;62.32;101352.22;5025720;28;20386;-78
2022/12/07 01:10:39;;;;;;;26.73;15.93;;;;;;;8.59;61.74;101347.22;5021841;28;20390;-78
2022/12/07 01:13:04;;;;;;;25.23;16.40;;;;;;;8.66;62.33;101347.47;5031674;28;20386;-78
2022/12/07 01:15:30;;;;;;;26.80;17.23;;;;;;;8.70;61.49;101354.16;5029971;28;20498;-77
2022/12/07 01:17:55;;;;;;;28.10;16.87;;;;;;;8.73;61.54;101360.00;5028283;28;20485;-77
2022/12/07 01:20:21;;;;;;;28.27;17.20;;;;;;;8.73;61.54;101364.44;5018837;28;20397;-78
2022/12/07 01:22:47;;;;;;;26.80;16.63;;;;;;;8.72;61.91;101357.50;5032277;28;20418;-77
2022/12/07 01:25:12;;;;;;;28.07;17.50;;;;;;;8.70;61.65;101356.81;5018887;28;20447;-77
2022/12/07 01:27:38;;;;;;;27.15;17.20;;;;;;;8.51;61.83;101357.66;5028642;28;20378;-77
2022/12/07 01:30:05;;;;;;;27.60;17.23;;;;;;;8.31;62.80;101343.59;5031202;28;20382;-77
2022/12/07 01:32:31;;;;;;;26.95;16.63;;;;;;;8.36;62.85;101341.38;5022975;28;20410;-77
2022/12/07 01:34:56;;;;;;;26.03;16.07;;;;;;;8.44;62.46;101344.16;5021491;28;20892;-77
2022/12/07 01:37:22;;;;;;;28.73;16.55;;;;;;;8.45;62.43;101340.56;5025335;28;20436;-77
2022/12/07 01:39:51;;;;;;;25.27;16.73;;;;;;;8.50;62.58;101346.25;5028832;28;20927;-77
2022/12/07 01:42:17;;;;;;;26.45;15.98;;;;;;;8.48;62.07;101345.56;5030867;28;20416;-77
2022/12/07 01:45:31;;;;;;;28.23;17.27;;;;;;;8.48;62.23;101350.00;5030194;28;20418;-77
2022/12/07 01:47:57;;;;;;;30.38;18.00;;;;;;;8.52;61.94;101346.13;5021485;28;20514;-77
2022/12/07 01:50:28;;;;;;;28.77;17.60;;;;;;;8.46;62.28;101339.56;5029261;28;20788;-77
2022/12/07 01:52:56;;;;;;;31.90;17.65;;;;;;;8.50;62.10;101350.69;5020412;28;20837;-77
2022/12/07 01:55:22;;;;;;;32.83;19.23;;;;;;;8.54;62.13;101346.81;5029918;28;20465;-77
2022/12/07 01:57:50;;;;;;;37.13;20.88;;;;;;;8.33;62.19;101339.81;5021449;28;20449;-77
2022/12/07 02:00:17;;;;;;;37.85;20.73;;;;;;;8.31;62.62;101341.78;5035283;28;20537;-77
2022/12/07 02:02:55;;;;;;;36.38;20.20;;;;;;;8.31;62.46;101330.38;5027497;28;20393;-77
2022/12/07 02:05:21;;;;;;;55.00;23.80;;;;;;;8.32;62.93;101324.13;5029059;28;20387;-76
2022/12/07 02:07:48;;;;;;;35.47;19.17;;;;;;;8.43;62.72;101334.59;5030733;28;20390;-76
2022/12/07 02:10:20;;;;;;;34.63;17.93;;;;;;;8.58;62.10;101342.91;5029665;28;20481;-77
2022/12/07 02:12:50;;;;;;;33.50;19.60;;;;;;;8.66;62.07;101327.19;5028810;28;20416;-76
2022/12/07 02:15:16;;;;;;;31.92;18.98;;;;;;;8.61;62.09;101321.50;5029453;28;20410;-77
2022/12/07 02:18:01;;;;;;;30.42;18.40;;;;;;;8.47;62.43;101317.47;5028490;28;20612;-76
2022/12/07 02:20:41;;;;;;;31.15;19.17;;;;;;;8.45;61.97;101310.69;5021588;28;20400;-75
2022/12/07 02:23:19;;;;;;;28.80;17.33;;;;;;;8.42;62.88;101320.53;5026263;28;20799;-77
2022/12/07 02:26:03;;;;;;;27.77;17.43;;;;;;;8.43;62.67;101308.16;5030846;28;20397;-76
2022/12/07 02:28:36;;;;;;;29.90;17.25;;;;;;;8.37;62.56;101321.88;5029470;28;20479;-76
2022/12/07 02:31:12;;;;;;;24.70;15.57;;;;;;;8.47;62.85;101312.19;5025446;28;20454;-77
2022/12/07 02:33:47;;;;;;;27.73;17.57;;;;;;;8.47;62.63;101317.47;5021231;28;20454;-77
2022/12/07 02:36:18;;;;;;;30.05;17.55;;;;;;;8.57;61.99;101310.38;5025699;28;20401;-77
2022/12/07 02:39:09;;;;;;;27.48;16.67;;;;;;;8.51;61.90;101312.72;5024946;28;20723;-77
2022/12/07 02:41:47;;;;;;;29.23;17.77;;;;;;;8.34;62.63;101315.09;5026420;28;20401;-77
2022/12/07 02:44:19;;;;;;;30.30;17.17;;;;;;;8.42;62.19;101309.94;5023937;28;20982;-77
2022/12/07 02:46:51;;;;;;;27.33;17.10;;;;;;;8.54;62.19;101296.59;5023330;28;20943;-77
2022/12/07 02:49:18;;;;;;;31.48;17.30;;;;;;;8.51;62.47;101291.59;5030854;28;20408;-77
2022/12/07 02:51:46;;;;;;;31.17;17.13;;;;;;;8.46;62.68;101281.44;5028879;28;20861;-76
2022/12/07 02:54:13;;;;;;;27.63;16.80;;;;;;;8.38;62.76;101284.78;5021078;28;20482;-77
2022/12/07 02:56:56;;;;;;;27.77;16.95;;;;;;;8.39;62.25;101283.81;5019884;28;20934;-77
2022/12/07 02:59:27;;;;;;;32.15;18.88;;;;;;;8.41;62.46;101275.75;5023830;28;20882;-77
2022/12/07 03:02:15;;;;;;;28.42;17.30;;;;;;;8.35;62.74;101277.13;5023312;28;20408;-78
2022/12/07 03:05:09;;;;;;;26.40;16.77;;;;;;;8.50;62.47;101288.13;5016264;28;20405;-78
2022/12/07 03:07:40;;;;;;;27.60;16.95;;;;;;;8.51;62.19;101278.38;5018693;28;20409;-77
2022/12/07 03:10:25;;;;;;;27.40;16.40;;;;;;;8.38;62.70;101263.63;5024761;28;20484;-77
2022/12/07 03:13:11;;;;;;;29.35;18.02;;;;;;;8.26;62.41;101263.94;5028172;28;20778;-77
2022/12/07 03:15:45;;;;;;;63.60;57.10;;;;;;;8.29;62.69;101268.94;5013199;28;20392;-78
2022/12/07 03:18:15;;;;;;;28.40;20.15;;;;;;;8.44;62.48;101272.00;5026623;28;20421;-78
2022/12/07 03:20:43;;;;;;;31.08;23.30;;;;;;;8.55;62.32;101270.03;5022100;28;20396;-77
2022/12/07 03:23:10;;;;;;;27.48;16.40;;;;;;;8.57;62.17;101270.72;5023097;28;20453;-78
2022/12/07 03:25:44;;;;;;;26.70;16.42;;;;;;;8.52;62.42;101264.22;5021361;28;20399;-78
2022/12/07 03:28:12;;;;;;;28.17;16.73;;;;;;;8.46;62.30;101262.94;5029300;28;20412;-77
2022/12/07 03:30:41;;;;;;;27.95;16.45;;;;;;;8.46;62.62;101262.13;5012984;28;20384;-77
2022/12/07 03:33:17;;;;;;;27.57;16.70;;;;;;;8.42;62.43;101272.97;5037509;28;20392;-76
2022/12/07 03:35:48;;;;;;;57.40;51.50;;;;;;;8.54;62.23;101264.91;5046877;28;20389;-76
2022/12/07 03:38:26;;;;;;;28.77;16.95;;;;;;;8.60;62.02;101257.22;5040930;28;20483;-76
2022/12/07 03:41:21;;;;;;;26.73;16.40;;;;;;;8.57;62.34;101261.94;5037626;28;20783;-77
2022/12/07 03:43:47;;;;;;;29.77;16.77;;;;;;;8.47;62.38;101255.88;5021943;28;20892;-76
2022/12/07 03:46:52;;;;;;;31.37;18.90;;;;;;;8.47;62.61;101251.41;5032422;28;20413;-76
2022/12/07 03:49:30;;;;;;;43.73;35.37;;;;;;;8.54;62.28;101249.88;5037602;28;20432;-76
2022/12/07 03:52:07;;;;;;;31.73;18.20;;;;;;;8.59;61.83;101260.03;5029172;28;20415;-77
2022/12/07 03:54:44;;;;;;;42.78;31.23;;;;;;;8.64;62.13;101260.41;5036759;28;20380;-76
2022/12/07 03:57:12;;;;;;;50.28;37.67;;;;;;;8.61;62.17;101258.88;5031583;28;20433;-76
2022/12/07 03:59:39;;;;;;;36.83;19.85;;;;;;;8.58;62.48;101253.06;5039130;28;20427;-76
2022/12/07 04:02:06;;;;;;;38.63;19.73;;;;;;;8.57;62.03;101252.22;5039116;28;20384;-77
2022/12/07 04:04:32;;;;;;;47.45;30.67;;;;;;;8.55;62.54;101264.75;5042865;28;21167;-77
2022/12/07 04:06:58;;;;;;;53.17;33.25;;;;;;;8.59;62.39;101266.13;5043177;28;20695;-78
2022/12/07 04:09:24;;;;;;;39.40;22.20;;;;;;;8.67;62.05;101275.16;5045776;28;20468;-78
2022/12/07 04:11:49;;;;;;;39.43;20.33;;;;;;;8.62;61.46;101286.13;5023626;28;20392;-77
2022/12/07 04:14:18;;;;;;;42.23;21.83;;;;;;;8.49;61.95;101293.56;5048266;28;20755;-77
2022/12/07 04:16:44;;;;;;;43.30;21.42;;;;;;;8.49;62.49;101290.91;5045882;28;20402;-76
2022/12/07 04:19:10;;;;;;;44.50;22.20;;;;;;;8.60;61.77;101302.13;5045348;28;20388;-77
2022/12/07 04:21:35;;;;;;;40.33;20.67;;;;;;;8.58;61.82;101290.06;5036411;28;20419;-77
2022/12/07 04:24:01;;;;;;;40.93;19.97;;;;;;;8.57;61.65;101291.00;5041506;28;20746;-76
2022/12/07 04:26:26;;;;;;;42.28;19.88;;;;;;;8.60;61.91;101288.91;5044931;28;20507;-76
2022/12/07 04:28:52;;;;;;;40.47;19.67;;;;;;;8.59;62.21;101283.81;5046304;28;20392;-76
2022/12/07 04:31:17;;;;;;;44.00;20.73;;;;;;;8.63;61.89;101273.78;5046805;28;20392;-76
2022/12/07 04:33:43;;;;;;;42.25;19.77;;;;;;;8.59;62.74;101260.03;5045798;28;20527;-76
2022/12/07 04:36:08;;;;;;;41.43;19.97;;;;;;;8.59;62.51;101263.50;5047439;28;20392;-77
2022/12/07 04:38:34;;;;;;;54.50;32.83;;;;;;;8.61;62.25;101258.06;5047052;28;20563;-76
2022/12/07 04:41:08;;;;;;;41.33;20.67;;;;;;;8.58;62.27;101239.84;5045155;28;20485;-76
2022/12/07 04:43:34;;;;;;;44.28;20.65;;;;;;;8.52;62.52;101243.91;5045274;28;20725;-76
2022/12/07 04:45:59;;;;;;;43.90;21.42;;;;;;;8.41;62.54;101247.50;5046189;28;20404;-77
2022/12/07 04:48:25;;;;;;;42.33;21.42;;;;;;;8.46;62.69;101249.75;5044889;28;20468;-76
2022/12/07 04:50:50;;;;;;;42.93;20.07;;;;;;;8.41;63.25;101252.78;5045210;28;20385;-77
2022/12/07 04:53:16;;;;;;;39.03;19.53;;;;;;;8.42;63.06;101248.38;5041873;28;20930;-77
2022/12/07 04:55:41;;;;;;;39.53;19.67;;;;;;;8.46;62.33;101243.63;5049022;28;20899;-76
2022/12/07 04:58:07;;;;;;;37.90;19.93;;;;;;;8.50;62.90;101252.94;5038664;28;21349;-77
2022/12/07 05:00:32;;;;;;;40.57;21.13;;;;;;;8.48;62.57;101257.53;5040870;28;20405;-76
2022/12/07 05:02:58;;;;;;;40.13;19.42;;;;;;;8.41;62.61;101255.44;5045731;28;20396;-77
2022/12/07 05:05:24;;;;;;;41.63;20.60;;;;;;;8.50;62.73;101252.94;5028335;28;20394;-76
2022/12/07 05:07:50;;;;;;;41.33;20.52;;;;;;;8.48;62.50;101244.31;5029549;28;20437;-77
2022/12/07 05:10:16;;;;;;;39.85;19.70;;;;;;;8.37;62.84;101238.22;5029499;28;20409;-77
2022/12/07 05:12:41;;;;;;;44.10;21.05;;;;;;;8.31;62.70;101233.47;5028303;28;20496;-77
2022/12/07 05:15:07;;;;;;;36.67;18.65;;;;;;;8.17;63.04;101229.47;5026418;28;20613;-77
2022/12/07 05:17:33;;;;;;;38.53;18.92;;;;;;;7.99;63.84;101228.53;5027938;28;20972;-77
2022/12/07 05:19:58;;;;;;;41.85;20.77;;;;;;;7.96;64.18;101237.56;5031367;28;20386;-76
2022/12/07 05:22:27;;;;;;;41.87;20.17;;;;;;;8.04;63.79;101247.41;5040271;28;20383;-76
2022/12/07 05:24:54;;;;;;;44.15;21.30;;;;;;;8.14;63.78;101242.97;5027312;28;20386;-76
2022/12/07 05:27:20;;;;;;;44.83;22.75;;;;;;;8.21;63.45;101246.72;5037378;28;20386;-76
2022/12/07 05:29:45;;;;;;;41.25;21.55;;;;;;;8.33;63.03;101257.13;5029086;28;20715;-76
2022/12/07 05:32:11;;;;;;;46.13;24.33;;;;;;;8.23;63.00;101252.69;5039470;28;20387;-76
2022/12/07 05:34:36;;;;;;;41.77;20.87;;;;;;;8.23;63.16;101243.94;5036878;28;20483;-76
2022/12/07 05:37:02;;;;;;;45.63;20.33;;;;;;;8.29;63.39;101239.91;5042898;28;20471;-77
2022/12/07 05:39:27;;;;;;;43.67;22.40;;;;;;;8.43;63.20;101231.56;5048240;28;20385;-78
2022/12/07 05:44:37;;;;;;;40.72;20.38;;;;;;;8.41;63.06;101233.47;5031139;28;20389;-75
2022/12/07 05:47:02;;;;;;;41.28;21.02;;;;;;;8.50;62.82;101242.34;5024030;28;20408;-76
2022/12/07 05:49:28;;;;;;;42.88;20.92;;;;;;;8.48;62.16;101247.81;5023367;28;20799;-79
2022/12/07 05:51:53;;;;;;;43.27;21.13;;;;;;;8.44;62.82;101250.88;5028033;28;20401;-83
2022/12/07 05:54:19;;;;;;;37.67;19.93;;;;;;;8.48;62.72;101234.59;5036095;28;20390;-80
2022/12/07 05:56:44;;;;;;;39.72;20.50;;;;;;;8.54;62.44;101233.19;5027100;28;20402;-81
2022/12/07 05:59:22;;;;;;;38.93;20.70;;;;;;;8.49;62.40;101244.19;5023966;28;20394;-80
2022/12/07 06:01:59;;;;;;;39.73;21.53;;;;;;;8.54;62.59;101231.38;5035503;28;20390;-80
2022/12/07 06:04:27;;;;;;;41.65;20.83;;;;;;;8.57;62.60;101228.44;5032472;28;20397;-79
2022/12/07 06:06:52;;;;;;;41.75;20.85;;;;;;;8.54;62.46;101235.84;5029848;28;20372;-78
2022/12/07 06:09:19;;;;;;;37.87;20.87;;;;;;;8.58;62.61;101239.84;5030776;28;20408;-79
2022/12/07 06:14:29;;;;;;;37.45;21.50;;;;;;;8.58;62.84;101222.16;5032932;28;20390;-78
2022/12/07 06:16:54;;;;;;;35.53;21.57;;;;;;;8.50;62.71;101230.00;5032839;28;20399;-78
2022/12/07 06:19:20;;;;;;;38.93;22.77;;;;;;;8.44;62.74;101229.72;5032386;28;20386;-79
2022/12/07 06:21:45;;;;;;;37.30;22.15;;;;;;;8.40;62.93;101229.16;5033257;28;20393;-78
2022/12/07 06:24:12;;;;;;;42.83;25.27;;;;;;;8.39;63.20;101230.97;5033307;28;20844;-77
2022/12/07 06:26:38;;;;;;;42.75;24.55;;;;;;;8.47;62.67;101221.53;5034931;28;20452;-77
2022/12/07 06:29:04;;;;;;;35.22;19.75;;;;;;;8.43;62.78;101226.25;5029067;28;20765;-78
2022/12/07 06:31:29;;;;;;;38.87;23.50;;;;;;;8.47;62.55;101225.00;5035885;28;20386;-78
2022/12/07 06:34:02;;;;;;;42.70;24.63;;;;;;;8.58;62.59;101232.75;5033014;28;20701;-78
2022/12/07 06:36:28;;;;;;;41.35;23.13;;;;;;;8.57;62.13;101223.16;5036476;28;20375;-79
2022/12/07 06:38:54;;;;;;;33.95;19.48;;;;;;;8.48;62.84;101229.31;5036369;28;20394;-77
2022/12/07 06:41:20;;;;;;;41.10;22.20;;;;;;;8.44;63.00;101235.03;5030667;28;20388;-78
2022/12/07 06:43:46;;;;;;;34.30;19.25;;;;;;;8.42;63.22;101216.66;5036336;28;20749;-78
2022/12/07 06:46:11;;;;;;;44.92;23.48;;;;;;;8.39;62.97;101227.47;5036380;28;20398;-78
2022/12/07 06:48:37;;;;;;;38.13;20.97;;;;;;;8.40;63.25;101235.25;5029258;28;20382;-77
2022/12/07 06:51:02;;;;;;;39.57;22.97;;;;;;;8.41;63.00;101242.22;5042736;28;20388;-78
2022/12/07 06:53:28;;;;;;;37.47;21.48;;;;;;;8.44;63.38;101245.59;5042794;28;20376;-77
2022/12/07 06:55:53;;;;;;;38.10;21.90;;;;;;;8.50;63.36;101239.72;5034517;28;20381;-77
2022/12/07 06:58:19;;;;;;;40.03;22.20;;;;;;;8.44;63.17;101235.84;5030275;28;20903;-76
2022/12/07 07:00:45;;;;;;;38.08;20.98;;;;;;;8.39;63.55;101240.69;5042584;28;20412;-77
2022/12/07 07:03:10;;;;;;;39.75;22.50;;;;;;;8.29;63.91;101242.53;5048261;28;20458;-78
2022/12/07 07:05:36;;;;;;;37.15;22.30;;;;;;;8.24;63.74;101241.13;5045403;28;20856;-78
2022/12/07 07:08:02;;;;;;;35.63;20.52;;;;;;;8.22;63.62;101242.25;5051948;28;20833;-78
2022/12/07 07:10:28;;;;;;;31.17;18.20;;;;;;;8.13;63.96;101245.75;5052544;28;20844;-78
2022/12/07 07:12:53;;;;;;;33.92;20.20;;;;;;;8.11;64.08;101251.16;5032875;28;20469;-76
2022/12/07 07:15:19;;;;;;;32.45;17.48;;;;;;;8.11;63.83;101251.16;5040689;28;20423;-77
2022/12/07 07:17:44;;;;;;;32.80;17.57;;;;;;;8.03;64.16;101245.75;5045742;28;20397;-76
2022/12/07 07:20:11;;;;;;;31.90;18.00;;;;;;;8.16;63.74;101259.50;5049351;28;20384;-77
2022/12/07 07:22:37;;;;;;;28.33;16.83;;;;;;;8.18;63.71;101259.38;5051998;28;20365;-79
2022/12/07 07:25:03;;;;;;;33.20;18.53;;;;;;;8.22;63.70;101250.19;5049485;28;20769;-78
2022/12/07 07:27:29;;;;;;;33.40;18.35;;;;;;;8.20;64.10;101247.69;5048352;28;20494;-79
2022/12/07 07:29:55;;;;;;;34.45;18.70;;;;;;;8.24;63.43;101243.78;5045412;28;20471;-78
2022/12/07 07:32:21;;;;;;;31.43;17.77;;;;;;;8.27;63.56;101247.97;5046652;28;20447;-79
2022/12/07 07:34:47;;;;;;;40.47;17.15;;;;;;;8.24;63.55;101251.69;5034608;28;20457;-79
2022/12/07 07:37:13;;;;;;;29.30;16.30;;;;;;;8.20;63.79;101233.66;5034924;28;20467;-80
2022/12/07 07:39:38;;;;;;;27.20;15.90;;;;;;;8.15;63.67;101244.63;5030880;28;20427;-81
2022/12/07 07:42:04;;;;;;;25.15;14.73;;;;;;;8.05;64.48;101246.47;5031179;28;20387;-81
2022/12/07 07:44:30;;;;;;;28.75;16.83;;;;;;;8.13;64.35;101251.03;5053393;28;20380;-81
2022/12/07 07:46:55;;;;;;;28.45;16.48;;;;;;;8.11;64.03;101239.78;5040095;28;20402;-80
2022/12/07 07:49:21;;;;;;;28.90;15.77;;;;;;;8.07;64.39;101238.38;5033045;28;20948;-79
2022/12/07 07:51:46;;;;;;;26.73;15.93;;;;;;;8.00;63.93;101236.31;5034361;28;20719;-79
2022/12/07 07:54:12;;;;;;;31.10;17.27;;;;;;;8.07;63.76;101249.78;5046429;28;20402;-78
2022/12/07 07:56:37;;;;;;;29.50;16.67;;;;;;;8.08;64.27;101256.72;5045819;28;20491;-77
2022/12/07 07:59:03;;;;;;;26.87;16.13;;;;;;;8.18;63.69;101247.00;5048763;28;20423;-77
2022/12/07 08:01:28;;;;;;;28.70;16.48;;;;;;;8.26;63.51;101246.28;5044565;28;20383;-77
2022/12/07 08:03:53;;;;;;;26.23;15.70;;;;;;;8.26;63.69;101250.72;5026486;28;20392;-76
2022/12/07 08:06:19;;;;;;;29.67;17.90;;;;;;;8.20;63.59;101247.69;5040864;28;20879;-77
2022/12/07 08:08:44;;;;;;;25.58;15.07;;;;;;;8.17;63.84;101247.94;5033671;28;20465;-76
2022/12/07 08:11:10;;;;;;;26.90;15.93;;;;;;;8.00;63.89;101243.41;5033501;28;20873;-77
2022/12/07 08:13:36;;;;;;;26.63;15.70;;;;;;;8.00;64.04;101246.03;5040895;28;20439;-76
2022/12/07 08:16:08;;;;;;;28.25;16.92;;;;;;;7.98;64.26;101248.00;5040931;28;20377;-76
2022/12/07 08:18:39;;;;;;;25.48;15.02;;;;;;;8.00;64.23;101253.97;5039929;28;20692;-76
2022/12/07 08:21:06;;;;;;;28.77;15.32;;;;;;;7.85;64.12;101251.75;5041028;28;20377;-78
2022/12/07 08:23:31;;;;;;;25.05;14.23;;;;;;;7.82;64.63;101257.28;5037915;28;20475;-78
2022/12/07 08:26:02;;;;;;;28.52;16.42;;;;;;;7.74;64.82;101254.53;5050804;28;20856;-78
2022/12/07 08:28:28;;;;;;;27.53;15.00;;;;;;;7.78;64.85;101260.38;5042627;28;20377;-77
2022/12/07 08:31:01;;;;;;;31.33;17.05;;;;;;;7.87;64.52;101259.53;5051970;28;20376;-78
2022/12/07 08:33:27;;;;;;;34.80;17.23;;;;;;;7.85;64.49;101249.09;5056645;28;20380;-79
2022/12/07 08:35:52;;;;;;;28.77;15.52;;;;;;;7.96;64.70;101256.03;5062401;28;20453;-78
2022/12/07 08:38:18;;;;;;;29.60;15.90;;;;;;;7.97;64.70;101249.78;5050591;28;20419;-78
2022/12/07 08:40:43;;;;;;;32.15;15.57;;;;;;;7.94;64.74;101246.59;5044483;28;20421;-78
2022/12/07 08:43:09;;;;;;;30.73;16.07;;;;;;;7.88;64.92;101261.19;5043115;28;20458;-78
2022/12/07 08:45:35;;;;;;;29.20;15.83;;;;;;;7.92;64.64;101253.81;5040683;28;20401;-78
2022/12/07 08:48:10;;;;;;;29.45;15.57;;;;;;;7.89;64.84;101257.56;5034661;28;20467;-78
2022/12/07 08:50:37;;;;;;;34.15;16.67;;;;;;;7.90;65.13;101253.94;5038392;28;20943;-78
2022/12/07 08:53:04;;;;;;;32.13;17.20;;;;;;;7.91;65.03;101252.16;5034990;28;20370;-80
2022/12/07 08:55:31;;;;;;;34.83;17.52;;;;;;;7.83;64.81;101243.13;5036734;28;20368;-80
2022/12/07 08:57:58;;;;;;;30.17;15.93;;;;;;;7.90;65.04;101246.03;5058735;28;20402;-81
2022/12/07 09:00:24;;;;;;;32.60;16.08;;;;;;;7.95;64.69;101238.53;5044532;28;20870;-80
2022/12/07 09:02:49;;;;;;;28.10;13.75;;;;;;;7.94;64.83;101238.66;5045191;28;20384;-81
2022/12/07 09:05:15;;;;;;;25.63;14.30;;;;;;;8.01;64.68;101229.22;5016435;28;20380;-81
2022/12/07 09:07:43;;;;;;;24.60;14.00;;;;;;;7.99;64.73;101225.88;5043377;28;20402;-81
2022/12/07 09:10:09;;;;;;;23.77;14.00;;;;;;;8.08;64.91;101219.75;5038677;28;20388;-80
2022/12/07 09:12:34;;;;;;;20.30;11.43;;;;;;;7.89;65.09;101203.97;5042243;28;20710;-81
2022/12/07 09:15:00;;;;;;;20.25;11.85;;;;;;;7.87;64.98;101205.88;5044894;28;20384;-79
2022/12/07 09:17:26;;;;;;;20.08;12.00;;;;;;;7.93;64.93;101200.06;5043100;28;20474;-77
2022/12/07 09:19:52;;;;;;;19.48;11.30;;;;;;;7.90;65.12;101193.25;5041247;28;20382;-80
2022/12/07 09:22:17;;;;;;;23.03;13.33;;;;;;;8.00;65.02;101180.88;5048952;28;20857;-79
2022/12/07 09:24:45;;;;;;;21.63;13.02;;;;;;;8.10;64.98;101180.00;5040624;28;20886;-80
2022/12/07 09:27:11;;;;;;;21.13;13.70;;;;;;;8.06;64.87;101189.19;5044705;28;20867;-80
2022/12/07 09:29:36;;;;;;;19.30;12.90;;;;;;;8.05;65.06;101180.44;5042090;28;20451;-82
2022/12/07 09:32:02;;;;;;;16.95;11.52;;;;;;;8.08;64.61;101182.78;5039717;28;20385;-81
2022/12/07 09:34:31;;;;;;;20.10;12.77;;;;;;;8.19;64.70;101180.00;5046764;28;20392;-80
2022/12/07 09:36:58;;;;;;;19.00;15.13;;;;;;;8.28;64.50;101177.47;5048870;28;20396;-80
2022/12/07 09:39:23;;;;;;;51.67;45.07;;;;;;;8.39;64.47;101174.63;5035615;28;20401;-79
2022/12/07 09:41:49;;;;;;;47.50;42.33;;;;;;;8.46;64.37;101167.84;5043304;28;20915;-80
2022/12/07 09:44:22;;;;;;;18.52;12.98;;;;;;;8.50;64.07;101179.81;5034498;28;20729;-79
2022/12/07 09:46:49;;;;;;;17.55;11.90;;;;;;;8.58;64.43;101181.72;5042009;28;20408;-79
2022/12/07 09:49:19;;;;;;;27.60;21.92;;;;;;;8.67;64.07;101174.72;5033742;28;20440;-80
2022/12/07 09:51:44;;;;;;;18.55;11.68;;;;;;;8.61;63.88;101165.56;5040128;28;20374;-79
2022/12/07 09:54:15;;;;;;;18.67;13.10;;;;;;;8.60;64.25;101174.47;5035469;28;20384;-79
2022/12/07 09:56:42;;;;;;;16.48;11.60;;;;;;;8.63;63.94;101160.16;5033051;28;20370;-79
2022/12/07 09:59:16;;;;;;;16.00;10.90;;;;;;;8.65;64.34;101164.28;5032683;28;20386;-79
2022/12/07 10:01:42;;;;;;;16.53;10.13;;;;;;;8.54;64.16;101153.91;5032519;28;20454;-78
2022/12/07 10:04:16;;;;;;;22.00;16.50;;;;;;;8.52;63.97;101153.25;5031416;28;20374;-78
2022/12/07 10:06:42;;;;;;;17.10;11.15;;;;;;;8.55;63.90;101143.22;5033371;28;20902;-77
2022/12/07 10:09:12;;;;;;;17.85;11.68;;;;;;;8.46;64.48;101137.94;5031900;28;20420;-78
2022/12/07 10:12:04;;;;;;;52.87;47.87;;;;;;;8.66;64.42;101142.19;5030673;28;20405;-77
2022/12/07 10:14:32;;;;;;;17.03;12.27;;;;;;;8.77;63.73;101139.34;5031172;28;20723;-76
2022/12/07 10:16:57;;;;;;;16.83;11.23;;;;;;;8.76;63.64;101135.00;5024500;28;20762;-77
2022/12/07 10:19:29;;;;;;;17.93;11.70;;;;;;;8.84;63.71;101139.59;5009557;28;20463;-76
2022/12/07 10:22:10;;;;;;;15.63;10.65;;;;;;;8.76;63.67;101134.19;5028775;28;20417;-78
2022/12/07 10:24:39;;;;;;;17.60;11.50;;;;;;;8.80;63.61;101117.91;5030748;28;20375;-79
2022/12/07 10:27:16;;;;;;;16.10;10.82;;;;;;;8.74;63.72;101115.00;5029831;28;20744;-76
2022/12/07 10:29:49;;;;;;;16.77;11.55;;;;;;;8.73;63.90;101115.97;5029657;28;20452;-76
2022/12/07 10:32:15;;;;;;;35.38;31.70;;;;;;;8.77;63.83;101110.25;5030494;28;20457;-78
2022/12/07 10:34:41;;;;;;;15.80;10.43;;;;;;;8.76;63.79;101110.41;5034393;28;20473;-77
2022/12/07 10:37:12;;;;;;;15.65;9.98;;;;;;;8.69;63.63;101107.50;5030391;28;20463;-77
2022/12/07 10:39:48;;;;;;;16.88;10.80;;;;;;;8.60;63.78;101114.50;5030543;28;20448;-78
2022/12/07 10:42:21;;;;;;;14.85;9.98;;;;;;;8.70;63.95;101111.00;5024781;28;20413;-80
2022/12/07 10:44:49;;;;;;;15.07;10.70;;;;;;;8.82;63.81;101116.91;5034599;28;20859;-76
2022/12/07 10:47:36;;;;;;;17.58;11.10;;;;;;;8.91;63.32;101119.50;5030252;28;20861;-78
2022/12/07 10:50:14;;;;;;;18.70;12.63;;;;;;;8.91;63.71;101122.16;5039077;28;20374;-77
2022/12/07 10:52:42;;;;;;;18.40;12.70;;;;;;;8.94;63.38;101107.78;5034824;28;20434;-76
2022/12/07 10:55:29;;;;;;;14.85;11.43;;;;;;;8.90;63.54;101112.53;5029612;28;20717;-77
2022/12/07 10:58:32;;;;;;;16.48;12.02;;;;;;;8.97;63.17;101099.56;5021352;28;20406;-76
2022/12/07 11:01:19;;;;;;;12.63;10.25;;;;;;;8.98;62.90;101111.78;5033221;28;20402;-78
2022/12/07 11:03:54;;;;;;;11.30;9.38;;;;;;;9.03;63.03;101108.69;5027879;28;20685;-78
2022/12/07 11:06:39;;;;;;;17.58;15.23;;;;;;;9.12;62.69;101102.50;5019219;28;20416;-78
2022/12/07 11:09:35;;;;;;;32.78;29.77;;;;;;;9.18;62.30;101100.09;5047211;28;20423;-79
2022/12/07 11:12:29;;;;;;;11.63;8.48;;;;;;;9.21;62.66;101092.84;5032346;28;20386;-76
2022/12/07 11:15:00;;;;;;;30.50;27.73;;;;;;;9.15;62.50;101096.94;5028899;28;20379;-77
2022/12/07 11:17:44;;;;;;;9.50;8.60;;;;;;;9.18;62.63;101094.81;5021553;28;20419;-77
2022/12/07 11:20:15;;;;;;;23.67;21.57;;;;;;;9.19;62.44;101088.53;5039757;28;20399;-76
2022/12/07 11:23:09;;;;;;;13.45;10.35;;;;;;;9.21;62.55;101092.84;5038956;28;20746;-79
2022/12/07 11:25:53;;;;;;;10.60;8.45;;;;;;;9.24;62.40;101085.44;5035702;28;20724;-78
2022/12/07 11:28:40;;;;;;;11.75;8.90;;;;;;;9.26;62.17;101080.81;5030674;28;20916;-77
2022/12/07 11:31:27;;;;;;;11.18;9.23;;;;;;;9.30;62.12;101076.88;5031130;28;20406;-78
2022/12/07 11:33:55;;;;;;;9.23;8.23;;;;;;;9.30;62.36;101079.53;5031135;28;20374;-76